Wednesday, November 22, 2017, 7:52 AM EST
Back to Local

KEWR, Newark International Airport

Location: Elizabeth, NJ, United States Lat: 40.683
Local Time: 7:52 AM EST (12:52 GMT) Lon: -74.167
Time Zone: US/Eastern Elev: 16 ft

Show me the last for .
Show Decoded

2017-11-22 06:51 METAR KEWR 221151Z 00000KT 8SM -RA BKN016 OVC032 11/07 A2991 RMK AO2 RAB26
                 SLP127 P0003 60003 70003 T01060072 10111 20072 55014 $ =
2017-11-22 05:51 METAR KEWR 221051Z 36004KT 10SM BKN022 OVC040 09/06 A2990 RMK AO2 RAE0957 SLP125
                 P0000 T00940056 $ =
2017-11-22 05:34 METAR KEWR 221034Z 02003KT 10SM BKN022 BKN040 OVC090 10/06 A2991 RMK AO2 RAE0957
                 P0000 T01000061 $ =
2017-11-22 04:51 METAR KEWR 220951Z 00000KT 10SM -RA SCT040 BKN090 OVC140 10/06 A2993 RMK AO2
                 RAB49 SLP133 P0000 T01000056 $ =
2017-11-22 03:51 METAR KEWR 220851Z 00000KT 10SM FEW040 SCT090 BKN140 OVC200 08/04 A2995 RMK AO2
                 SLP141 T00830044 58018 $ =
2017-11-22 02:51 METAR KEWR 220751Z 00000KT 10SM FEW040 SCT140 OVC200 08/04 A2997 RMK AO2 SLP147
                 T00830044 $ =
2017-11-22 01:51 METAR KEWR 220651Z 00000KT 10SM FEW050 OVC190 09/04 A2998 RMK AO2 SLP153
                 T00890044 $ =
2017-11-22 00:51 METAR KEWR 220551Z 00000KT 10SM OVC240 09/04 A3000 RMK AO2 SLP158 T00940044
                 10117 20089 58015 $ =
2017-11-21 23:51 METAR KEWR 220451Z 00000KT 10SM FEW050 OVC220 09/04 A3002 RMK AO2 SLP166
                 T00940044 401560022 $ =
2017-11-21 22:51 METAR KEWR 220351Z 17004KT 10SM FEW180 BKN250 10/04 A3004 RMK AO2 SLP171
                 T01000044 $ =
2017-11-21 21:51 METAR KEWR 220251Z 16005KT 10SM FEW180 BKN250 10/04 A3005 RMK AO2 SLP174
                 T01000039 58000 $ =
2017-11-21 20:51 METAR KEWR 220151Z COR 17004KT 10SM FEW180 BKN250 11/03 A3005 RMK AO2 SLP174
                 T01060028 $ =
2017-11-21 19:51 METAR KEWR 220051Z 18007KT 10SM FEW180 BKN250 11/02 A3005 RMK AO2 SLP174
                 T01110022 =
2017-11-21 18:51 METAR KEWR 212351Z 17005KT 10SM BKN250 11/01 A3005 RMK AO2 SLP174 T01110006
                 10156 20111 53008 =
2017-11-21 17:51 METAR KEWR 212251Z 00000KT 10SM BKN250 12/M01 A3003 RMK AO2 SLP168 T01171011 =
2017-11-21 16:51 METAR KEWR 212151Z 20006KT 10SM BKN250 11/M02 A3002 RMK AO2 SLP163 T01111017 =
2017-11-21 15:51 METAR KEWR 212051Z 20014G21KT 10SM FEW220 BKN250 13/M02 A3002 RMK AO2 SLP166
                 T01331022 55009 =
2017-11-21 14:51 METAR KEWR 211951Z 20015G18KT 10SM FEW220 BKN250 14/M02 A3001 RMK AO2 SLP163
                 T01441017 =
2017-11-21 13:51 METAR KEWR 211851Z 21013KT 10SM BKN250 16/M01 A3003 RMK AO2 SLP170 T01561011 =
2017-11-21 12:51 METAR KEWR 211751Z 22015G21KT 10SM BKN250 14/M01 A3005 RMK AO2 SLP175 T01441011
                 10150 20022 58025 $ =
2017-11-21 11:51 METAR KEWR 211651Z 23015G23KT 10SM BKN250 13/00 A3008 RMK AO2 SLP186 T01330000 $
                 =
2017-11-21 10:51 METAR KEWR 211551Z 23017G24KT 10SM BKN250 12/M01 A3011 RMK AO2 PK WND 23028/1520
                 SLP195 T01221011 $ =
2017-11-21 09:51 METAR KEWR 211451Z 22013G24KT 10SM SCT250 11/00 A3012 RMK AO2 SLP200 T01110000
                 58003 $ =
2017-11-21 08:51 METAR KEWR 211351Z 22011KT 10SM SCT250 09/01 A3013 RMK AO2 SLP201 T00890011 $ =

Support USWX by starting your Amazon purchase here.